createdAt,value
2019-03-23T00:01:52.349Z,14.65
2019-03-23T00:04:25.388Z,14.40
2019-03-23T00:06:56.159Z,13.90
2019-03-23T00:09:27.542Z,13.23
2019-03-23T00:11:58.578Z,14.37
2019-03-23T00:14:29.586Z,11.73
2019-03-23T00:17:00.287Z,20.50
2019-03-23T00:19:31.675Z,12.70
2019-03-23T00:22:04.163Z,14.07
2019-03-23T00:24:35.367Z,12.40
2019-03-23T00:27:06.252Z,11.90
2019-03-23T00:29:37.218Z,16.30
2019-03-23T00:32:09.389Z,14.45
2019-03-23T00:34:40.239Z,14.93
2019-03-23T00:37:12.417Z,15.98
2019-03-23T00:39:43.295Z,16.35
2019-03-23T00:42:14.251Z,13.13
2019-03-23T00:44:45.363Z,12.90
2019-03-23T00:47:16.435Z,19.13
2019-03-23T00:49:47.477Z,25.53
2019-03-23T00:52:18.523Z,15.33
2019-03-23T00:54:49.512Z,12.25
2019-03-23T00:57:20.584Z,12.50
2019-03-23T00:59:51.889Z,16.63
2019-03-23T01:02:22.938Z,16.50
2019-03-23T01:04:53.835Z,21.93
2019-03-23T01:07:24.806Z,14.10
2019-03-23T01:09:55.786Z,15.23
2019-03-23T01:12:26.752Z,12.03
2019-03-23T01:14:57.816Z,16.53
2019-03-23T01:17:29.199Z,14.07
2019-03-23T01:19:59.901Z,16.10
2019-03-23T01:22:31.837Z,20.67
2019-03-23T01:25:02.812Z,16.77
2019-03-23T01:27:33.795Z,13.20
2019-03-23T01:30:05.180Z,18.20
2019-03-23T01:32:36.009Z,14.97
2019-03-23T01:35:08.434Z,17.17
2019-03-23T01:37:39.287Z,13.03
2019-03-23T01:40:10.575Z,15.03
2019-03-23T01:42:41.736Z,13.00
2019-03-23T01:45:14.160Z,17.90
2019-03-23T01:47:45.290Z,23.25
2019-03-23T01:50:16.246Z,15.73
2019-03-23T01:52:47.427Z,14.07
2019-03-23T01:55:18.370Z,15.77
2019-03-23T01:57:49.225Z,13.47
2019-03-23T02:00:20.016Z,15.90
2019-03-23T02:02:51.124Z,21.13
2019-03-23T02:05:22.107Z,19.90
2019-03-23T02:07:52.918Z,15.20
2019-03-23T02:10:23.782Z,19.93
2019-03-23T02:12:54.524Z,17.90
2019-03-23T02:15:25.254Z,26.30
2019-03-23T02:17:56.917Z,19.57
2019-03-23T02:20:27.747Z,18.20
2019-03-23T02:22:58.867Z,16.40
2019-03-23T02:25:29.872Z,14.40
2019-03-23T02:28:01.137Z,14.13
2019-03-23T02:30:32.393Z,18.07
2019-03-23T02:33:03.437Z,15.03
2019-03-23T02:35:34.538Z,23.83
2019-03-23T02:38:05.635Z,15.60
2019-03-23T02:40:36.821Z,16.90
2019-03-23T02:43:07.945Z,17.77
2019-03-23T02:45:39.057Z,19.40
2019-03-23T02:48:09.858Z,18.77
2019-03-23T02:50:40.699Z,14.27
2019-03-23T02:53:11.871Z,14.93
2019-03-23T02:55:42.811Z,17.23
2019-03-23T02:58:13.776Z,16.27
2019-03-23T03:00:44.890Z,15.70
2019-03-23T03:03:15.827Z,19.37
2019-03-23T03:05:46.795Z,16.43
2019-03-23T03:08:17.817Z,16.10
2019-03-23T03:10:48.623Z,19.53
2019-03-23T03:13:20.078Z,14.17
2019-03-23T03:15:50.761Z,21.80
2019-03-23T03:18:21.818Z,15.50
2019-03-23T03:20:52.764Z,21.93
2019-03-23T03:23:23.531Z,15.13
2019-03-23T03:25:54.463Z,30.53
2019-03-23T03:28:25.438Z,16.20
2019-03-23T03:30:56.253Z,16.70
2019-03-23T03:33:27.133Z,19.10
2019-03-23T03:35:58.209Z,15.70
2019-03-23T03:38:29.152Z,15.43
2019-03-23T03:41:00.212Z,18.97
2019-03-23T03:43:30.959Z,14.93
2019-03-23T03:46:01.956Z,16.60
2019-03-23T03:48:32.934Z,16.63
2019-03-23T03:51:03.792Z,17.37
2019-03-23T03:53:34.850Z,18.83
2019-03-23T03:56:06.170Z,16.57
2019-03-23T03:58:37.133Z,14.83
2019-03-23T04:01:08.015Z,15.93
2019-03-23T04:03:38.800Z,18.23
2019-03-23T04:06:09.917Z,17.57
2019-03-23T04:08:42.251Z,16.63
2019-03-23T04:11:13.405Z,19.00
2019-03-23T04:13:44.627Z,17.03
2019-03-23T04:16:15.462Z,14.93
2019-03-23T04:18:46.881Z,16.40
2019-03-23T04:21:17.590Z,13.40
2019-03-23T04:23:48.474Z,15.60
2019-03-23T04:26:19.428Z,16.43
2019-03-23T04:28:50.333Z,18.47
2019-03-23T04:31:21.334Z,15.60
2019-03-23T04:33:52.272Z,24.77
2019-03-23T04:36:23.251Z,14.83
2019-03-23T04:38:54.356Z,15.23
2019-03-23T04:41:25.272Z,18.50
2019-03-23T04:43:56.446Z,17.70
2019-03-23T04:46:27.143Z,18.03
2019-03-23T04:48:57.992Z,20.33
2019-03-23T04:51:29.032Z,13.77
2019-03-23T04:54:00.022Z,17.77
2019-03-23T04:56:30.759Z,17.57
2019-03-23T04:59:01.796Z,20.60
2019-03-23T05:01:32.702Z,21.00
2019-03-23T05:04:03.624Z,18.20
2019-03-23T05:06:34.563Z,14.13
2019-03-23T05:09:09.602Z,13.73
2019-03-23T05:11:40.548Z,18.57
2019-03-23T05:14:11.737Z,18.03
2019-03-23T05:16:42.836Z,18.57
2019-03-23T05:19:13.851Z,17.20
2019-03-23T05:21:44.801Z,16.00
2019-03-23T05:24:16.167Z,16.10
2019-03-23T05:26:47.362Z,15.97
2019-03-23T05:29:18.574Z,16.87
2019-03-23T05:31:49.897Z,16.30
2019-03-23T05:34:21.184Z,17.63
2019-03-23T05:36:52.277Z,21.43
2019-03-23T05:39:23.333Z,14.10
2019-03-23T05:41:54.421Z,18.73
2019-03-23T05:44:25.428Z,20.67
2019-03-23T05:46:56.208Z,19.20
2019-03-23T05:49:27.374Z,15.87
2019-03-23T05:51:58.359Z,17.30
2019-03-23T05:54:29.576Z,16.00
2019-03-23T05:57:00.606Z,16.93
2019-03-23T05:59:31.833Z,13.13
2019-03-23T06:02:02.965Z,20.73
2019-03-23T06:04:34.154Z,13.47
2019-03-23T06:07:05.197Z,15.43
2019-03-23T06:09:36.118Z,11.27
2019-03-23T06:12:07.046Z,12.13
2019-03-23T06:14:38.001Z,12.10
2019-03-23T06:17:09.010Z,12.90
2019-03-23T06:19:40.075Z,16.33
2019-03-23T06:22:10.751Z,12.53
2019-03-23T06:24:41.605Z,10.33
2019-03-23T06:27:12.882Z,11.93
2019-03-23T06:29:44.043Z,14.37
2019-03-23T06:32:14.884Z,14.43
2019-03-23T06:34:45.822Z,13.30
2019-03-23T06:37:16.864Z,12.27
2019-03-23T06:39:48.043Z,11.20
2019-03-23T06:42:19.848Z,12.90
2019-03-23T06:44:50.816Z,15.10
2019-03-23T06:47:21.792Z,19.93
2019-03-23T06:49:52.688Z,13.60
2019-03-23T06:52:23.684Z,11.80
2019-03-23T06:54:54.678Z,19.45
2019-03-23T06:57:26.006Z,18.43
2019-03-23T06:59:57.000Z,13.47
2019-03-23T07:02:28.107Z,31.77
2019-03-23T07:04:58.838Z,38.27
2019-03-23T07:07:30.898Z,22.17
2019-03-23T07:10:02.128Z,21.10
2019-03-23T07:12:35.935Z,13.80
2019-03-23T07:15:19.098Z,19.23
2019-03-23T07:17:41.013Z,15.50
2019-03-23T07:20:12.789Z,22.10
2019-03-23T07:22:43.524Z,25.37
2019-03-23T07:25:14.588Z,74.37
2019-03-23T07:27:45.618Z,24.63
2019-03-23T07:30:16.974Z,29.40
2019-03-23T07:32:48.208Z,23.03
2019-03-23T07:35:19.387Z,24.07
2019-03-23T07:37:50.773Z,17.15
2019-03-23T07:40:21.753Z,21.10
2019-03-23T07:42:52.970Z,16.53
2019-03-23T07:45:24.092Z,15.73
2019-03-23T07:47:55.228Z,17.23
2019-03-23T07:50:26.414Z,15.13
2019-03-23T07:52:57.536Z,16.17
2019-03-23T07:55:28.716Z,15.67
2019-03-23T07:57:59.726Z,23.60
2019-03-23T08:00:30.894Z,25.57
2019-03-23T08:03:02.218Z,17.20
2019-03-23T08:05:33.354Z,16.60
2019-03-23T08:08:04.648Z,16.77
2019-03-23T08:10:35.984Z,15.63
2019-03-23T08:13:06.964Z,13.47
2019-03-23T08:15:38.186Z,14.40
2019-03-23T08:18:09.338Z,17.70
2019-03-23T08:20:40.288Z,15.83
2019-03-23T08:23:11.655Z,14.90
2019-03-23T08:25:42.790Z,12.00
2019-03-23T08:28:14.003Z,14.23
2019-03-23T08:30:44.907Z,13.47
2019-03-23T08:33:18.170Z,12.90
2019-03-23T08:35:49.402Z,12.80
2019-03-23T08:38:20.561Z,13.03
2019-03-23T08:40:51.532Z,13.43
2019-03-23T08:43:22.767Z,14.93
2019-03-23T08:45:54.039Z,12.80
2019-03-23T08:48:25.472Z,20.60
2019-03-23T08:50:56.792Z,18.53
2019-03-23T08:53:28.748Z,17.67
2019-03-23T08:55:59.911Z,13.40
2019-03-23T08:58:30.945Z,13.33
2019-03-23T09:01:02.062Z,12.60
2019-03-23T09:03:33.153Z,13.90
2019-03-23T09:06:04.355Z,13.40
2019-03-23T09:08:35.466Z,12.43
2019-03-23T09:11:06.749Z,13.25
2019-03-23T09:13:40.823Z,12.37
2019-03-23T09:16:10.598Z,11.63
2019-03-23T09:18:42.269Z,16.46
2019-03-23T09:21:13.343Z,11.90
2019-03-23T09:23:44.512Z,11.85
2019-03-23T09:26:15.877Z,11.40
2019-03-23T09:28:47.822Z,11.38
2019-03-23T09:31:19.087Z,10.95
2019-03-23T09:33:51.291Z,10.28
2019-03-23T09:36:23.604Z,11.28
2019-03-23T09:38:55.056Z,10.03
2019-03-23T09:41:26.052Z,10.32
2019-03-23T09:43:57.195Z,10.75
2019-03-23T09:46:28.282Z,11.45
2019-03-23T09:49:00.599Z,10.32
2019-03-23T09:51:31.542Z,11.12
2019-03-23T09:54:02.765Z,11.50
2019-03-23T09:56:34.083Z,11.43
2019-03-23T09:59:05.046Z,11.80
2019-03-23T10:01:36.121Z,11.55
2019-03-23T10:04:07.371Z,11.85
2019-03-23T10:06:38.432Z,12.37
2019-03-23T10:09:09.458Z,10.70
2019-03-23T10:11:40.938Z,11.00
2019-03-23T10:14:12.117Z,11.40
2019-03-23T10:24:12.167Z,13.20
2019-03-23T10:29:13.132Z,13.20
2019-03-23T10:31:44.458Z,12.60
2019-03-23T10:36:46.110Z,12.87
2019-03-23T10:41:47.250Z,13.55
2019-03-23T10:44:18.249Z,13.90
2019-03-23T10:46:49.367Z,14.60
2019-03-23T10:49:20.461Z,14.30
2019-03-23T10:54:22.344Z,14.35
2019-03-23T10:56:53.162Z,16.80
2019-03-23T10:59:24.008Z,16.25
2019-03-23T11:04:25.750Z,16.70
2019-03-23T11:06:56.985Z,16.35
2019-03-23T11:29:29.805Z,13.40
2019-03-23T11:32:00.943Z,14.50
2019-03-23T11:34:32.257Z,13.15
2019-03-23T11:37:03.636Z,13.20
2019-03-23T11:39:34.783Z,13.40
2019-03-23T11:42:05.895Z,12.90
2019-03-23T11:47:06.251Z,14.60
2019-03-23T11:49:37.353Z,14.00
2019-03-23T11:52:08.163Z,14.80
2019-03-23T11:54:38.944Z,13.40
2019-03-23T12:02:09.204Z,13.15
2019-03-23T12:04:40.217Z,14.00
2019-03-23T12:07:11.494Z,13.85
2019-03-23T12:09:42.610Z,14.70
2019-03-23T12:12:13.681Z,15.77
2019-03-23T12:14:45.002Z,16.00
2019-03-23T12:17:16.114Z,15.80
2019-03-23T12:19:47.394Z,16.02
2019-03-23T12:22:18.483Z,15.70
2019-03-23T12:27:19.025Z,15.40
2019-03-23T12:29:50.081Z,15.90
2019-03-23T12:32:21.246Z,15.65
2019-03-23T12:34:52.388Z,15.10
2019-03-23T12:37:23.346Z,17.45
2019-03-23T12:42:24.936Z,15.30
2019-03-23T12:44:56.091Z,16.00
2019-03-23T12:47:28.147Z,17.12
2019-03-23T12:49:59.570Z,21.05
2019-03-23T12:52:31.664Z,15.98
2019-03-23T12:55:02.709Z,16.07
2019-03-23T12:57:33.955Z,17.77
2019-03-23T13:05:04.768Z,17.40
2019-03-23T13:10:06.276Z,17.75
2019-03-23T13:12:37.373Z,17.60
2019-03-23T13:20:08.835Z,20.50
2019-03-23T13:22:40.308Z,19.80
2019-03-23T13:25:11.274Z,21.40
2019-03-23T13:27:42.492Z,22.50
2019-03-23T13:30:14.250Z,22.80
2019-03-23T13:32:45.477Z,22.90
2019-03-23T13:35:16.720Z,56.25
2019-03-23T13:40:18.919Z,23.00
2019-03-23T13:42:50.000Z,23.55
2019-03-23T13:45:21.157Z,25.00
2019-03-23T13:47:52.299Z,28.40
2019-03-23T13:55:31.213Z,28.90
2019-03-23T13:58:12.534Z,29.70
2019-03-23T14:00:44.760Z,30.27
2019-03-23T14:03:15.819Z,32.83
2019-03-23T14:05:46.793Z,32.97
2019-03-23T14:08:17.784Z,35.97
2019-03-23T14:10:49.652Z,39.70
2019-03-23T14:13:20.629Z,43.07
2019-03-23T14:15:51.832Z,42.83
2019-03-23T14:18:22.936Z,38.47
2019-03-23T14:20:54.287Z,38.27
2019-03-23T14:23:25.622Z,37.93
2019-03-23T14:25:56.750Z,38.77
2019-03-23T14:28:28.822Z,37.13
2019-03-23T14:31:00.045Z,38.50
2019-03-23T14:33:32.902Z,35.10
2019-03-23T14:36:04.429Z,34.53
2019-03-23T14:38:35.903Z,35.00
2019-03-23T14:41:07.368Z,39.00
2019-03-23T14:43:38.980Z,42.83
2019-03-23T14:46:10.075Z,59.13
2019-03-23T14:48:45.497Z,38.08
2019-03-23T14:51:16.550Z,45.60
2019-03-23T14:53:47.824Z,41.90
2019-03-23T14:56:18.855Z,41.43
2019-03-23T14:58:49.742Z,41.43
2019-03-23T15:01:21.078Z,42.67
2019-03-23T15:03:52.264Z,44.37
2019-03-23T15:06:23.682Z,41.73
2019-03-23T15:08:56.167Z,42.40
2019-03-23T15:11:27.253Z,46.50
2019-03-23T15:13:58.756Z,44.58
2019-03-23T15:16:29.869Z,44.43
2019-03-23T15:19:02.068Z,54.53
2019-03-23T15:21:33.089Z,49.17
2019-03-23T15:24:05.663Z,44.63
2019-03-23T15:26:36.569Z,50.23
2019-03-23T15:29:08.526Z,57.35
2019-03-23T15:31:39.948Z,43.70
2019-03-23T15:34:11.953Z,42.48
2019-03-23T15:36:43.058Z,45.30
2019-03-23T15:39:14.507Z,45.47
2019-03-23T15:41:45.484Z,45.07
2019-03-23T15:44:16.549Z,56.53
2019-03-23T15:46:47.704Z,47.13
2019-03-23T15:49:18.939Z,45.20
2019-03-23T15:51:52.587Z,47.60
2019-03-23T15:54:23.557Z,46.60
2019-03-23T15:56:54.529Z,45.70
2019-03-23T15:59:26.018Z,48.10
2019-03-23T16:01:57.548Z,50.30
2019-03-23T16:04:29.060Z,48.00
2019-03-23T16:07:00.333Z,48.47
2019-03-23T16:09:32.320Z,55.10
2019-03-23T16:12:03.541Z,51.13
2019-03-23T16:14:34.680Z,47.03
2019-03-23T16:17:05.791Z,59.47
2019-03-23T16:19:37.073Z,51.07
2019-03-23T16:22:08.271Z,49.40
2019-03-23T16:24:40.544Z,49.40
2019-03-23T16:27:11.588Z,43.57
2019-03-23T16:29:42.717Z,52.10
2019-03-23T16:32:13.999Z,49.07
2019-03-23T16:34:45.259Z,44.60
2019-03-23T16:37:16.157Z,54.40
2019-03-23T16:39:47.357Z,44.37
2019-03-23T16:42:18.662Z,50.80
2019-03-23T16:44:49.605Z,58.20
2019-03-23T16:47:20.783Z,50.73
2019-03-23T16:49:52.014Z,57.67
2019-03-23T16:52:23.256Z,53.43
2019-03-23T16:54:54.374Z,49.20
2019-03-23T16:57:25.741Z,51.23
2019-03-23T16:59:56.797Z,50.48
2019-03-23T17:02:27.944Z,49.90
2019-03-23T17:04:59.076Z,60.17
2019-03-23T17:07:30.311Z,50.67
2019-03-23T17:10:01.710Z,47.73
2019-03-23T17:12:33.779Z,52.97
2019-03-23T17:15:05.425Z,43.97
2019-03-23T17:17:36.353Z,40.00
2019-03-23T17:20:13.219Z,43.90
2019-03-23T17:22:44.222Z,50.80
2019-03-23T17:25:15.486Z,44.87
2019-03-23T17:27:46.479Z,42.80
2019-03-23T17:30:17.703Z,42.10
2019-03-23T17:32:50.604Z,38.00
2019-03-23T17:35:21.794Z,36.50
2019-03-23T17:37:53.014Z,38.40
2019-03-23T17:40:24.503Z,44.40
2019-03-23T17:43:05.354Z,40.47
2019-03-23T17:45:29.639Z,45.70
2019-03-23T17:48:00.657Z,35.63
2019-03-23T17:50:32.020Z,38.07
2019-03-23T17:53:03.229Z,38.37
2019-03-23T17:55:34.440Z,44.20
2019-03-23T17:58:05.927Z,37.35
2019-03-23T18:00:37.000Z,39.07
2019-03-23T18:03:08.147Z,40.33
2019-03-23T18:05:41.091Z,39.87
2019-03-23T18:08:12.177Z,36.50
2019-03-23T18:10:43.361Z,41.03
2019-03-23T18:13:16.818Z,38.67
2019-03-23T18:15:47.153Z,43.40
2019-03-23T18:18:18.237Z,41.73
2019-03-23T18:20:49.774Z,47.00
2019-03-23T18:23:21.038Z,43.27
2019-03-23T18:25:51.986Z,38.97
2019-03-23T18:28:23.222Z,44.43
2019-03-23T18:30:54.866Z,41.83
2019-03-23T18:33:25.971Z,42.17
2019-03-23T18:35:57.922Z,41.33
2019-03-23T18:38:29.124Z,50.10
2019-03-23T18:41:01.379Z,43.10
2019-03-23T18:43:34.432Z,43.70
2019-03-23T18:46:06.011Z,36.47
2019-03-23T18:48:37.106Z,35.00
2019-03-23T18:51:08.132Z,40.93
2019-03-23T18:53:39.234Z,41.80
2019-03-23T18:56:11.405Z,37.03
2019-03-23T18:58:42.588Z,38.30
2019-03-23T19:01:14.899Z,40.70
2019-03-23T19:03:46.162Z,39.87
2019-03-23T19:06:18.093Z,42.67
2019-03-23T19:08:49.775Z,33.10
2019-03-23T19:11:21.360Z,40.65
2019-03-23T19:13:52.444Z,44.35
2019-03-23T19:16:23.440Z,35.33
2019-03-23T19:18:54.853Z,39.17
2019-03-23T19:21:25.915Z,35.00
2019-03-23T19:23:57.020Z,38.30
2019-03-23T19:26:28.342Z,43.80
2019-03-23T19:28:59.413Z,44.50
2019-03-23T19:31:30.596Z,36.50
2019-03-23T19:34:01.748Z,34.67
2019-03-23T19:36:33.101Z,39.83
2019-03-23T19:39:06.063Z,43.20
2019-03-23T19:41:37.247Z,32.00
2019-03-23T19:44:09.004Z,36.03
2019-03-23T19:46:40.740Z,35.45
2019-03-23T19:49:11.771Z,34.30
2019-03-23T19:51:43.234Z,40.53
2019-03-23T19:54:14.459Z,33.83
2019-03-23T19:56:46.386Z,31.87
2019-03-23T19:59:17.657Z,31.83
2019-03-23T20:01:48.951Z,35.23
2019-03-23T20:04:20.136Z,28.97
2019-03-23T20:06:51.370Z,33.33
2019-03-23T20:09:23.309Z,29.67
2019-03-23T20:11:55.200Z,34.08
2019-03-23T20:14:26.300Z,30.57
2019-03-23T20:16:58.507Z,31.07
2019-03-23T20:19:29.498Z,28.33
2019-03-23T20:22:00.821Z,28.10
2019-03-23T20:24:31.960Z,30.67
2019-03-23T20:27:03.551Z,32.30
2019-03-23T20:29:34.755Z,28.60
2019-03-23T20:32:08.474Z,40.20
2019-03-23T20:34:39.829Z,23.23
2019-03-23T20:37:10.829Z,29.20
2019-03-23T20:39:42.095Z,32.63
2019-03-23T20:42:14.080Z,27.40
2019-03-23T20:44:45.651Z,29.27
2019-03-23T20:47:17.251Z,30.52
2019-03-23T20:49:48.750Z,29.12
2019-03-23T20:52:20.828Z,25.88
2019-03-23T20:54:52.109Z,25.75
2019-03-23T20:57:24.379Z,26.33
2019-03-23T20:59:56.167Z,31.13
2019-03-23T21:02:27.505Z,45.83
2019-03-23T21:04:58.748Z,26.43
2019-03-23T21:07:30.610Z,28.32
2019-03-23T21:10:02.121Z,23.10
2019-03-23T21:12:34.147Z,25.65
2019-03-23T21:15:05.458Z,30.77
2019-03-23T21:17:50.439Z,23.92
2019-03-23T21:20:10.520Z,28.30
2019-03-23T21:22:41.822Z,22.27
2019-03-23T21:25:13.289Z,25.67
2019-03-23T21:27:44.531Z,25.07
2019-03-23T21:30:16.530Z,32.07
2019-03-23T21:32:47.782Z,26.30
2019-03-23T21:35:19.385Z,37.30
2019-03-23T21:37:51.459Z,28.87
2019-03-23T21:40:22.613Z,32.03
2019-03-23T21:42:55.165Z,24.30
2019-03-23T21:45:26.607Z,24.10
2019-03-23T21:47:58.284Z,22.13
2019-03-23T21:50:30.275Z,26.73
2019-03-23T21:53:01.515Z,25.33
2019-03-23T21:55:36.064Z,24.13
2019-03-23T21:58:07.435Z,30.63
2019-03-23T22:00:39.270Z,23.07
2019-03-23T22:03:10.550Z,24.77
2019-03-23T22:05:41.736Z,36.53
2019-03-23T22:08:12.931Z,23.67
2019-03-23T22:10:44.101Z,27.80
2019-03-23T22:13:15.334Z,28.10
2019-03-23T22:15:46.448Z,31.02
2019-03-23T22:18:17.587Z,30.30
2019-03-23T22:20:48.904Z,34.67
2019-03-23T22:23:22.384Z,29.55
2019-03-23T22:25:53.658Z,24.10
2019-03-23T22:28:24.739Z,24.50
2019-03-23T22:30:56.044Z,29.47
2019-03-23T22:33:28.235Z,23.27
2019-03-23T22:35:59.700Z,27.77
2019-03-23T22:38:31.616Z,25.08
2019-03-23T22:41:02.681Z,24.03
2019-03-23T22:43:33.825Z,20.30
2019-03-23T22:46:06.233Z,24.50
2019-03-23T22:48:37.269Z,24.60
2019-03-23T22:51:08.489Z,24.23
2019-03-23T22:53:39.490Z,22.67
2019-03-23T22:56:10.655Z,22.50
2019-03-23T22:58:42.117Z,28.40
2019-03-23T23:01:13.356Z,24.23
2019-03-23T23:03:44.544Z,28.37
2019-03-23T23:06:15.800Z,30.23
2019-03-23T23:08:47.280Z,25.20
2019-03-23T23:11:18.768Z,29.33
2019-03-23T23:13:50.659Z,26.80
2019-03-23T23:16:21.948Z,23.60
2019-03-23T23:18:54.008Z,20.20
2019-03-23T23:21:25.291Z,23.17
2019-03-23T23:23:57.551Z,28.67
2019-03-23T23:26:29.065Z,22.30
2019-03-23T23:29:00.676Z,27.02
2019-03-23T23:31:31.976Z,21.70
2019-03-23T23:34:04.094Z,24.92
2019-03-23T23:36:35.290Z,38.47
2019-03-23T23:39:07.886Z,19.70
2019-03-23T23:41:38.865Z,20.93
2019-03-23T23:44:10.344Z,24.73
2019-03-23T23:46:41.348Z,24.63
2019-03-23T23:49:13.109Z,23.00
2019-03-23T23:51:50.106Z,18.50
2019-03-23T23:54:16.647Z,20.60
2019-03-23T23:56:47.965Z,23.40
2019-03-23T23:59:19.842Z,26.20
